Portada
METAR-TAF:

METAR-TAF

Aeroports :

Worcester Regional Airport

Worcester, Massachusetts, Estats Units d'Amèrica

latitud: 42-16-14N, longitud: 071-52-23W, altitud: 307 m

Observació

L'informe es va fer fa 35 minuts, a les 23:54 UTC
Vent 19 kt del Oest/Nord-Oest amb ràfegues de 25 kt
Temperatura -2°C
Humitat 33%
Pressió 1004 hPa
Visibilitat: 16.1 km
Cel clar

METAR: KORH 042354Z 30019G25KT 10SM CLR M02/M16 A2964 RMK AO2 PK WND 30027/2344 SLP049 T10171156 10017 21017 53010

Hora: 19:29 (00:29 UTC)

Pronòstic

L'informe es va fer fa 1 hora i 8 minuts, a les 23:21 UTC
Pronòstic vàlid del 05 a les 00 UTC al 05 a les 24 UTC
Vent 17 kt del Oest/Nord-Oest amb ràfegues de 25 kt
Visibilitat: 10 km
Cel clar
A partir de les 05 a les 0600 UTC
Vent 12 kt del Oest/Nord-Oest amb ràfegues de 28 kt
Visibilitat: 10 km
Cel ennuvolat a una alçada de 9000 ft

TAF: KORH 042321Z 0500/0524 30017G25KT P6SM SKC FM050600 30012G28KT P6SM BKN090

Observacions i pronòstics meteorològics de més de 4000 aeroports (METAR i TAF).

Les estacions disponibles són els punts grocs i vermells al mapa.

Posi el ratolí al punt desitjat per veure el nom de l'estació.

Feu clic per veure les observacions i els pronòstics meteorològics.

Per canviar el mapa: feu clic els botons verds amb una creu de color negre per apropar; al botó verd amb un guió per allunyar la imatge; o en les fletxes verdes per a mapes adjacents.


METAR-TAF: